createdAt,value
2023-02-19T00:01:50.221Z,2.13
2023-02-19T00:04:20.641Z,2.25
2023-02-19T00:06:48.253Z,2.17
2023-02-19T00:09:20.329Z,2.45
2023-02-19T00:11:48.198Z,3.00
2023-02-19T00:14:19.929Z,2.92
2023-02-19T00:16:46.944Z,2.55
2023-02-19T00:19:16.454Z,2.42
2023-02-19T00:21:44.012Z,2.53
2023-02-19T00:24:12.509Z,3.20
2023-02-19T00:29:22.434Z,3.20
2023-02-19T00:31:51.130Z,2.95
2023-02-19T00:37:04.676Z,3.15
2023-02-19T00:39:35.080Z,3.55
2023-02-19T00:42:02.846Z,4.03
2023-02-19T00:44:30.578Z,3.97
2023-02-19T00:47:00.822Z,3.67
2023-02-19T00:49:30.361Z,3.85
2023-02-19T00:52:02.550Z,3.90
2023-02-19T00:54:39.807Z,3.95
2023-02-19T00:57:06.864Z,4.13
2023-02-19T00:59:35.077Z,4.88
2023-02-19T01:02:04.710Z,4.03
2023-02-19T01:04:32.263Z,3.92
2023-02-19T01:07:05.964Z,3.85
2023-02-19T01:09:33.544Z,4.22
2023-02-19T01:12:04.312Z,3.70
2023-02-19T01:14:32.147Z,4.47
2023-02-19T01:16:59.435Z,4.72
2023-02-19T01:19:27.024Z,4.30
2023-02-19T01:22:00.595Z,4.70
2023-02-19T01:27:13.881Z,4.93
2023-02-19T01:29:43.274Z,4.28
2023-02-19T01:32:12.720Z,4.68
2023-02-19T01:34:41.890Z,4.85
2023-02-19T01:37:13.331Z,3.80
2023-02-19T01:39:43.064Z,4.43
2023-02-19T01:42:15.512Z,3.05
2023-02-19T01:44:52.500Z,3.75
2023-02-19T01:47:21.318Z,2.90
2023-02-19T01:49:52.946Z,2.90
2023-02-19T01:55:11.367Z,2.95
2023-02-19T01:57:47.894Z,2.78
2023-02-19T02:03:00.773Z,2.80
2023-02-19T02:05:40.567Z,2.90
2023-02-19T02:08:28.931Z,2.60
2023-02-19T02:11:01.158Z,3.00
2023-02-19T02:13:34.588Z,2.83
2023-02-19T02:18:59.683Z,2.55
2023-02-19T02:27:56.262Z,2.60
2023-02-19T02:30:26.783Z,2.58
2023-02-19T02:33:31.796Z,2.72
2023-02-19T02:36:06.828Z,2.72
2023-02-19T02:41:18.812Z,3.30
2023-02-19T02:43:48.677Z,3.10
2023-02-19T02:46:28.447Z,2.92
2023-02-19T02:51:47.966Z,2.72
2023-02-19T02:57:40.319Z,2.72
2023-02-19T03:02:50.283Z,2.80
2023-02-19T03:05:41.087Z,2.45
2023-02-19T03:11:01.723Z,2.13
2023-02-19T03:14:03.754Z,2.90
2023-02-19T03:16:54.325Z,2.53
2023-02-19T03:19:35.334Z,2.72
2023-02-19T03:25:34.920Z,3.08
2023-02-19T03:30:54.900Z,3.63
2023-02-19T03:33:30.513Z,3.30
2023-02-19T03:51:00.967Z,2.28
2023-02-19T03:53:44.914Z,2.78
2023-02-19T03:56:24.547Z,1.88
2023-02-19T04:01:54.946Z,1.90
2023-02-19T04:15:25.366Z,2.88
2023-02-19T04:17:59.782Z,2.78
2023-02-19T04:20:35.792Z,2.25
2023-02-19T04:23:04.336Z,2.50
2023-02-19T04:28:21.265Z,2.85
2023-02-19T04:30:51.043Z,2.75
2023-02-19T04:33:20.977Z,2.90
2023-02-19T04:38:39.777Z,2.13
2023-02-19T04:46:32.408Z,2.33
2023-02-19T04:49:00.528Z,2.53
2023-02-19T04:51:27.994Z,1.73
2023-02-19T04:53:56.552Z,1.85
2023-02-19T04:56:23.876Z,2.17
2023-02-19T04:58:54.348Z,2.45
2023-02-19T05:01:21.435Z,2.00
2023-02-19T05:03:51.343Z,2.00
2023-02-19T05:06:19.471Z,1.88
2023-02-19T05:08:47.367Z,2.00
2023-02-19T05:11:15.665Z,2.00
2023-02-19T05:16:25.844Z,1.77
2023-02-19T05:18:55.196Z,1.63
2023-02-19T05:21:26.076Z,2.00
2023-02-19T05:23:56.462Z,2.40
2023-02-19T05:26:24.139Z,1.70
2023-02-19T05:28:56.500Z,1.70
2023-02-19T05:31:25.538Z,2.10
2023-02-19T05:33:53.280Z,2.30
2023-02-19T05:36:22.809Z,2.03
2023-02-19T05:38:54.886Z,1.77
2023-02-19T05:41:24.866Z,2.15
2023-02-19T05:43:56.076Z,2.55
2023-02-19T05:46:27.057Z,1.80
2023-02-19T05:48:55.737Z,1.88
2023-02-19T05:51:25.248Z,1.83
2023-02-19T05:53:52.866Z,2.25
2023-02-19T05:56:37.655Z,2.10
2023-02-19T05:59:09.487Z,1.55
2023-02-19T06:01:37.500Z,1.63
2023-02-19T06:04:04.546Z,1.23
2023-02-19T06:06:32.498Z,1.38
2023-02-19T06:08:59.412Z,1.75
2023-02-19T06:11:26.389Z,1.55
2023-02-19T06:13:53.360Z,1.42
2023-02-19T06:16:20.291Z,1.10
2023-02-19T06:18:47.536Z,1.30
2023-02-19T06:21:19.921Z,1.30
2023-02-19T06:23:48.751Z,1.73
2023-02-19T06:26:27.349Z,1.50
2023-02-19T06:28:55.313Z,1.70
2023-02-19T06:31:23.604Z,1.80
2023-02-19T06:33:55.381Z,1.65
2023-02-19T06:36:22.555Z,2.05
2023-02-19T06:38:49.282Z,2.55
2023-02-19T06:41:23.549Z,1.77
2023-02-19T06:43:50.365Z,1.80
2023-02-19T06:46:17.312Z,2.03
2023-02-19T06:48:45.376Z,2.30
2023-02-19T06:51:14.497Z,1.98
2023-02-19T06:53:42.011Z,2.20
2023-02-19T06:56:23.713Z,2.70
2023-02-19T06:58:53.680Z,2.70
2023-02-19T07:01:21.109Z,2.20
2023-02-19T07:03:48.212Z,1.70
2023-02-19T07:06:15.432Z,1.65
2023-02-19T07:08:42.431Z,2.03
2023-02-19T07:11:09.604Z,1.98
2023-02-19T07:16:18.421Z,2.10
2023-02-19T07:18:45.670Z,2.45
2023-02-19T07:21:14.095Z,2.13
2023-02-19T07:23:44.195Z,2.53
2023-02-19T07:26:13.450Z,1.75
2023-02-19T07:28:42.574Z,1.60
2023-02-19T07:31:10.953Z,1.60
2023-02-19T07:33:38.715Z,1.63
2023-02-19T07:36:08.918Z,1.77
2023-02-19T07:44:07.605Z,2.10
2023-02-19T07:46:38.000Z,1.98
2023-02-19T07:49:13.716Z,2.05
2023-02-19T07:51:41.048Z,2.38
2023-02-19T07:54:09.285Z,2.03
2023-02-19T07:56:47.582Z,3.10
2023-02-19T08:04:57.758Z,1.90
2023-02-19T08:07:25.854Z,2.05
2023-02-19T08:13:22.545Z,2.17
2023-02-19T08:15:51.821Z,1.88
2023-02-19T08:18:21.633Z,1.55
2023-02-19T08:20:51.959Z,1.77
2023-02-19T08:23:21.768Z,1.85
2023-02-19T08:25:49.809Z,3.20
2023-02-19T08:28:22.830Z,2.30
2023-02-19T08:30:50.802Z,1.70
2023-02-19T08:33:22.463Z,2.15
2023-02-19T08:35:50.718Z,1.67
2023-02-19T08:38:18.933Z,1.60
2023-02-19T08:40:47.875Z,1.48
2023-02-19T08:43:18.348Z,1.80
2023-02-19T08:45:47.751Z,1.50
2023-02-19T08:48:15.244Z,1.50
2023-02-19T08:50:42.503Z,1.60
2023-02-19T08:53:09.891Z,1.38
2023-02-19T08:55:38.401Z,1.52
2023-02-19T08:58:05.189Z,1.52
2023-02-19T09:00:32.227Z,1.48
2023-02-19T09:02:59.087Z,1.20
2023-02-19T09:05:26.304Z,1.25
2023-02-19T09:07:53.782Z,1.73
2023-02-19T09:10:21.158Z,1.33
2023-02-19T09:12:48.499Z,1.65
2023-02-19T09:15:15.543Z,1.52
2023-02-19T09:17:42.738Z,1.40
2023-02-19T09:20:11.584Z,1.15
2023-02-19T09:22:38.956Z,1.27
2023-02-19T09:25:06.198Z,1.88
2023-02-19T09:27:33.809Z,1.25
2023-02-19T09:30:00.860Z,1.60
2023-02-19T09:32:31.111Z,2.10
2023-02-19T09:34:58.678Z,1.25
2023-02-19T09:37:27.974Z,1.35
2023-02-19T09:39:55.676Z,1.33
2023-02-19T09:42:30.174Z,1.50
2023-02-19T09:44:59.506Z,1.25
2023-02-19T09:47:34.686Z,1.95
2023-02-19T09:50:06.396Z,1.58
2023-02-19T09:52:47.030Z,1.30
2023-02-19T09:55:17.670Z,1.10
2023-02-19T09:57:45.685Z,1.48
2023-02-19T10:00:12.966Z,1.30
2023-02-19T10:02:40.084Z,1.52
2023-02-19T10:05:12.910Z,1.30
2023-02-19T10:07:45.489Z,1.35
2023-02-19T10:10:16.726Z,1.05
2023-02-19T10:13:00.057Z,1.50
2023-02-19T10:15:35.593Z,1.10
2023-02-19T10:18:03.561Z,1.65
2023-02-19T10:20:32.675Z,1.08
2023-02-19T10:23:03.853Z,1.10
2023-02-19T10:25:33.494Z,1.20
2023-02-19T10:28:01.546Z,1.25
2023-02-19T10:30:34.503Z,1.27
2023-02-19T10:33:14.002Z,1.13
2023-02-19T10:35:56.888Z,1.63
2023-02-19T10:38:29.677Z,1.05
2023-02-19T10:41:03.761Z,1.20
2023-02-19T10:43:37.401Z,0.75
2023-02-19T10:46:07.875Z,1.17
2023-02-19T10:48:43.902Z,1.00
2023-02-19T10:51:14.050Z,1.15
2023-02-19T10:53:45.236Z,1.20
2023-02-19T10:56:25.290Z,1.30
2023-02-19T10:58:52.384Z,0.98
2023-02-19T11:01:22.221Z,1.05
2023-02-19T11:03:52.591Z,0.90
2023-02-19T11:06:29.696Z,0.77
2023-02-19T11:09:00.998Z,1.00
2023-02-19T11:11:32.346Z,1.08
2023-02-19T11:14:02.568Z,0.82
2023-02-19T11:16:43.825Z,1.00
2023-02-19T11:19:27.426Z,0.77
2023-02-19T11:21:55.196Z,0.93
2023-02-19T11:24:37.942Z,1.90
2023-02-19T11:27:08.313Z,0.85
2023-02-19T11:29:35.603Z,1.02
2023-02-19T11:32:21.142Z,0.70
2023-02-19T11:34:48.715Z,1.23
2023-02-19T11:37:18.853Z,1.15
2023-02-19T11:39:49.290Z,1.00
2023-02-19T11:42:29.535Z,1.25
2023-02-19T11:45:27.173Z,1.20
2023-02-19T11:48:13.258Z,1.77
2023-02-19T11:50:49.446Z,0.80
2023-02-19T11:53:28.399Z,1.30
2023-02-19T11:56:13.510Z,0.98
2023-02-19T11:59:13.390Z,0.70
2023-02-19T12:01:55.617Z,1.05
2023-02-19T12:04:44.585Z,1.00
2023-02-19T12:07:51.323Z,0.80
2023-02-19T12:10:36.243Z,1.00
2023-02-19T12:13:21.252Z,1.63
2023-02-19T12:15:47.950Z,1.13
2023-02-19T12:18:20.961Z,0.95
2023-02-19T12:21:13.934Z,1.20
2023-02-19T12:24:06.711Z,1.33
2023-02-19T12:27:18.244Z,1.10
2023-02-19T12:30:06.974Z,0.75
2023-02-19T12:32:52.708Z,0.93
2023-02-19T12:35:44.299Z,0.98
2023-02-19T12:38:33.819Z,0.93
2023-02-19T12:41:40.518Z,0.93
2023-02-19T12:44:10.473Z,1.17
2023-02-19T12:46:41.708Z,1.00
2023-02-19T12:49:13.027Z,0.85
2023-02-19T12:51:42.915Z,0.93
2023-02-19T12:54:31.286Z,1.17
2023-02-19T12:57:02.953Z,1.08
2023-02-19T12:59:35.521Z,1.00
2023-02-19T13:02:21.114Z,0.90
2023-02-19T13:05:14.578Z,0.98
2023-02-19T13:08:08.346Z,0.90
2023-02-19T13:10:42.324Z,0.80
2023-02-19T13:13:32.358Z,0.98
2023-02-19T13:16:18.477Z,1.17
2023-02-19T13:18:49.139Z,0.98
2023-02-19T13:21:36.278Z,1.08
2023-02-19T13:24:07.766Z,1.00
2023-02-19T13:26:46.929Z,0.80
2023-02-19T13:29:28.010Z,0.95
2023-02-19T13:32:06.628Z,0.82
2023-02-19T13:34:51.790Z,0.75
2023-02-19T13:37:19.042Z,1.10
2023-02-19T13:39:55.785Z,0.70
2023-02-19T13:42:28.046Z,0.90
2023-02-19T13:45:01.065Z,1.38
2023-02-19T13:47:55.285Z,0.80
2023-02-19T13:50:30.808Z,1.05
2023-02-19T13:53:02.710Z,1.13
2023-02-19T13:55:47.007Z,0.90
2023-02-19T13:58:51.532Z,0.70
2023-02-19T14:01:18.820Z,1.08
2023-02-19T14:03:55.520Z,0.80
2023-02-19T14:06:22.298Z,0.90
2023-02-19T14:08:52.827Z,1.17
2023-02-19T14:11:42.399Z,0.77
2023-02-19T14:14:37.911Z,0.52
2023-02-19T14:17:27.991Z,0.77
2023-02-19T14:19:56.780Z,0.90
2023-02-19T14:22:45.403Z,0.90
2023-02-19T14:25:21.027Z,0.77
2023-02-19T14:27:48.745Z,0.90
2023-02-19T14:30:16.160Z,1.15
2023-02-19T14:32:47.457Z,0.90
2023-02-19T14:35:32.781Z,0.70
2023-02-19T14:38:03.481Z,0.98
2023-02-19T14:40:37.972Z,0.90
2023-02-19T14:43:06.165Z,0.77
2023-02-19T14:45:42.822Z,0.90
2023-02-19T14:48:17.430Z,1.00
2023-02-19T14:50:48.049Z,0.88
2023-02-19T14:53:18.617Z,0.70
2023-02-19T14:55:46.804Z,0.77
2023-02-19T14:58:22.329Z,0.80
2023-02-19T15:00:49.065Z,0.93
2023-02-19T15:03:31.612Z,1.20
2023-02-19T15:06:13.450Z,0.80
2023-02-19T15:08:44.149Z,1.30
2023-02-19T15:11:40.507Z,0.70
2023-02-19T15:14:08.327Z,0.90
2023-02-19T15:16:36.431Z,0.90
2023-02-19T15:19:07.703Z,1.10
2023-02-19T15:21:38.356Z,1.08
2023-02-19T15:24:06.465Z,0.95
2023-02-19T15:26:37.712Z,0.95
2023-02-19T15:29:10.603Z,0.90
2023-02-19T15:31:45.719Z,0.80
2023-02-19T15:34:17.811Z,0.93
2023-02-19T15:36:44.939Z,1.10
2023-02-19T15:39:24.416Z,1.17
2023-02-19T15:42:04.320Z,1.00
2023-02-19T15:44:48.863Z,0.60
2023-02-19T15:47:23.160Z,0.80
2023-02-19T15:50:07.766Z,1.15
2023-02-19T15:52:53.013Z,0.95
2023-02-19T15:55:50.994Z,0.90
2023-02-19T15:58:48.564Z,0.80
2023-02-19T16:01:36.936Z,1.10
2023-02-19T16:04:04.335Z,1.00
2023-02-19T16:06:31.148Z,0.80
2023-02-19T16:09:03.914Z,1.00
2023-02-19T16:11:35.484Z,3.55
2023-02-19T16:14:37.191Z,2.10
2023-02-19T16:17:09.779Z,0.88
2023-02-19T16:19:59.392Z,0.90
2023-02-19T16:22:31.533Z,1.33
2023-02-19T16:25:06.966Z,1.00
2023-02-19T16:27:37.288Z,1.30
2023-02-19T16:30:38.673Z,0.90
2023-02-19T16:33:33.738Z,1.15
2023-02-19T16:36:35.724Z,1.20
2023-02-19T16:39:08.442Z,1.08
2023-02-19T16:42:02.094Z,1.40
2023-02-19T16:44:28.893Z,1.10
2023-02-19T16:47:03.334Z,1.00
2023-02-19T16:49:30.185Z,1.25
2023-02-19T16:52:03.818Z,1.35
2023-02-19T16:54:31.131Z,0.95
2023-02-19T16:57:00.627Z,1.00
2023-02-19T16:59:27.755Z,0.93
2023-02-19T17:01:54.733Z,1.27
2023-02-19T17:04:21.631Z,1.30
2023-02-19T17:06:48.572Z,1.10
2023-02-19T17:09:15.368Z,1.15
2023-02-19T17:11:42.162Z,1.20
2023-02-19T17:14:10.050Z,1.25
2023-02-19T17:16:40.625Z,1.02
2023-02-19T17:19:16.172Z,1.05
2023-02-19T17:21:43.349Z,1.20
2023-02-19T17:24:10.175Z,0.98
2023-02-19T17:26:37.180Z,1.20
2023-02-19T17:29:09.515Z,1.48
2023-02-19T17:31:36.504Z,1.20
2023-02-19T17:34:03.341Z,1.10
2023-02-19T17:36:31.990Z,1.00
2023-02-19T17:39:00.033Z,1.20
2023-02-19T17:41:27.167Z,1.00
2023-02-19T17:43:54.011Z,1.27
2023-02-19T17:46:26.766Z,1.17
2023-02-19T17:48:54.338Z,1.15
2023-02-19T17:51:24.402Z,1.45
2023-02-19T17:53:51.216Z,1.70
2023-02-19T17:56:23.764Z,1.38
2023-02-19T17:58:51.141Z,0.98
2023-02-19T18:01:20.021Z,1.25
2023-02-19T18:03:46.857Z,1.35
2023-02-19T18:06:13.810Z,1.80
2023-02-19T18:08:46.861Z,1.20
2023-02-19T18:11:13.952Z,1.10
2023-02-19T18:13:40.746Z,1.00
2023-02-19T18:16:10.536Z,0.98
2023-02-19T18:18:38.271Z,1.38
2023-02-19T18:21:09.178Z,1.10
2023-02-19T18:23:36.123Z,1.17
2023-02-19T18:26:03.125Z,1.25
2023-02-19T18:28:30.123Z,1.20
2023-02-19T18:30:56.975Z,1.05
2023-02-19T18:33:23.876Z,0.90
2023-02-19T18:35:50.663Z,1.45
2023-02-19T18:38:18.065Z,1.20
2023-02-19T18:40:47.370Z,1.10
2023-02-19T18:43:14.189Z,1.73
2023-02-19T18:45:43.783Z,1.05
2023-02-19T18:48:11.130Z,1.42
2023-02-19T18:50:38.827Z,1.40
2023-02-19T18:53:05.695Z,1.10
2023-02-19T18:55:38.696Z,1.30
2023-02-19T18:58:05.723Z,1.00
2023-02-19T19:00:34.241Z,0.98
2023-02-19T19:03:01.276Z,0.98
2023-02-19T19:05:29.785Z,1.00
2023-02-19T19:07:59.682Z,0.80
2023-02-19T19:10:26.829Z,1.15
2023-02-19T19:12:54.809Z,1.40
2023-02-19T19:15:22.393Z,1.15
2023-02-19T19:17:51.661Z,1.10
2023-02-19T19:20:25.557Z,0.73
2023-02-19T19:22:54.163Z,1.17
2023-02-19T19:25:23.708Z,1.10
2023-02-19T19:27:51.978Z,1.13
2023-02-19T19:30:22.997Z,1.35
2023-02-19T19:32:51.835Z,1.00
2023-02-19T19:35:20.951Z,1.13
2023-02-19T19:37:48.113Z,1.52
2023-02-19T19:40:17.861Z,1.40
2023-02-19T19:42:44.894Z,2.05
2023-02-19T19:45:12.044Z,1.50
2023-02-19T19:47:41.209Z,1.10
2023-02-19T19:50:15.092Z,1.20
2023-02-19T19:52:45.505Z,1.55
2023-02-19T19:55:20.079Z,1.67
2023-02-19T19:57:50.609Z,1.23
2023-02-19T20:00:18.445Z,1.33
2023-02-19T20:02:46.758Z,1.92
2023-02-19T20:05:14.652Z,1.38
2023-02-19T20:07:46.736Z,1.40
2023-02-19T20:10:17.673Z,1.52
2023-02-19T20:12:44.805Z,1.08
2023-02-19T20:15:12.004Z,1.75
2023-02-19T20:17:39.217Z,1.25
2023-02-19T20:20:07.483Z,1.10
2023-02-19T20:22:36.541Z,1.38
2023-02-19T20:25:03.494Z,1.27
2023-02-19T20:27:35.989Z,1.40
2023-02-19T20:30:08.386Z,1.20
2023-02-19T20:32:36.670Z,1.90
2023-02-19T20:35:03.664Z,1.42
2023-02-19T20:37:30.834Z,2.00
2023-02-19T20:39:57.666Z,1.50
2023-02-19T20:42:24.487Z,1.73
2023-02-19T20:44:51.277Z,2.30
2023-02-19T20:47:18.228Z,1.70
2023-02-19T20:49:46.900Z,1.52
2023-02-19T20:52:16.225Z,1.80
2023-02-19T20:54:46.094Z,1.60
2023-02-19T20:57:13.767Z,1.90
2023-02-19T20:59:41.059Z,2.58
2023-02-19T21:02:15.206Z,1.60
2023-02-19T21:04:42.148Z,1.40
2023-02-19T21:07:08.852Z,2.03
2023-02-19T21:09:38.588Z,1.27
2023-02-19T21:12:05.789Z,1.60
2023-02-19T21:14:32.585Z,1.70
2023-02-19T21:16:59.549Z,1.38
2023-02-19T21:19:26.654Z,1.38
2023-02-19T21:21:53.326Z,1.00
2023-02-19T21:24:20.204Z,1.10
2023-02-19T21:26:49.119Z,1.10
2023-02-19T21:29:19.335Z,1.40
2023-02-19T21:31:48.484Z,1.25
2023-02-19T21:34:21.773Z,1.80
2023-02-19T21:36:52.065Z,1.60
2023-02-19T21:39:24.132Z,1.38
2023-02-19T21:41:51.031Z,1.50
2023-02-19T21:44:18.276Z,1.20
2023-02-19T21:46:45.750Z,1.10
2023-02-19T21:49:13.170Z,1.60
2023-02-19T21:51:42.215Z,1.30
2023-02-19T21:54:15.043Z,1.00
2023-02-19T21:56:42.204Z,1.20
2023-02-19T21:59:09.258Z,1.20
2023-02-19T22:01:43.093Z,1.20
2023-02-19T22:04:17.023Z,1.50
2023-02-19T22:06:44.799Z,1.35
2023-02-19T22:09:12.501Z,1.40
2023-02-19T22:11:39.205Z,1.73
2023-02-19T22:14:05.966Z,1.42
2023-02-19T22:16:32.872Z,1.77
2023-02-19T22:19:00.456Z,1.30
2023-02-19T22:21:32.784Z,1.23
2023-02-19T22:24:00.746Z,1.30
2023-02-19T22:26:33.891Z,1.15
2023-02-19T22:29:03.109Z,1.13
2023-02-19T22:31:32.887Z,1.17
2023-02-19T22:33:59.997Z,1.48
2023-02-19T22:36:33.976Z,1.15
2023-02-19T22:39:01.249Z,1.52
2023-02-19T22:41:28.554Z,1.27
2023-02-19T22:43:57.144Z,1.55
2023-02-19T22:46:28.467Z,1.40
2023-02-19T22:48:55.292Z,1.60
2023-02-19T22:51:24.022Z,1.15
2023-02-19T22:53:56.046Z,1.50
2023-02-19T22:56:25.182Z,1.73
2023-02-19T22:58:53.872Z,1.80
2023-02-19T23:01:21.092Z,1.50
2023-02-19T23:03:55.374Z,1.58
2023-02-19T23:06:25.317Z,1.52
2023-02-19T23:08:53.752Z,1.90
2023-02-19T23:11:22.853Z,1.40
2023-02-19T23:13:49.834Z,1.73
2023-02-19T23:16:20.521Z,1.58
2023-02-19T23:18:47.500Z,1.60
2023-02-19T23:21:14.557Z,1.40
2023-02-19T23:23:44.486Z,1.63
2023-02-19T23:26:14.898Z,1.50
2023-02-19T23:28:43.037Z,1.55
2023-02-19T23:31:10.215Z,1.77
2023-02-19T23:33:37.266Z,1.70
2023-02-19T23:36:04.531Z,1.83
2023-02-19T23:38:31.558Z,1.73
2023-02-19T23:40:59.167Z,1.80
2023-02-19T23:43:26.456Z,1.90
2023-02-19T23:45:53.581Z,1.73
2023-02-19T23:48:20.657Z,2.58
2023-02-19T23:50:47.457Z,2.13
2023-02-19T23:53:14.166Z,2.03
2023-02-19T23:55:41.437Z,2.35
2023-02-19T23:58:08.512Z,2.10
